Time;durP1;ratioP1;P1;durP2;ratioP2;P2;SDS_P1;SDS_P2;PMS_P1;PMS_P2;Temp;Humidity;BMP_temperature;BMP_pressure;BME280_temperature;BME280_humidity;BME280_pressure;Samples;Min_cycle;Max_cycle;Signal;HPM_P1;HPM_P2
2023/08/19 00:01:04;;;;;;;16.27;14.57;;;22.70;99.90;;;;;;4986750;28;20189;-65
2023/08/19 00:03:31;;;;;;;14.77;13.00;;;22.70;99.90;;;;;;4987805;28;20851;-65
2023/08/19 00:05:59;;;;;;;18.23;14.10;;;22.70;99.90;;;;;;4986815;28;20354;-65
2023/08/19 00:08:27;;;;;;;19.33;12.63;;;22.70;99.90;;;;;;4987859;28;20043;-64
2023/08/19 00:10:53;;;;;;;18.60;14.20;;;22.60;99.90;;;;;;4986312;28;20131;-65
2023/08/19 00:13:19;;;;;;;15.75;14.00;;;22.60;99.90;;;;;;4987269;28;20093;-66
2023/08/19 00:15:44;;;;;;;15.60;13.32;;;22.60;99.90;;;;;;4986341;28;20432;-65
2023/08/19 00:18:10;;;;;;;15.30;13.10;;;22.60;99.90;;;;;;4969962;28;20045;-64
2023/08/19 00:20:36;;;;;;;14.98;13.45;;;22.60;99.90;;;;;;4987218;28;20100;-66
2023/08/19 00:23:02;;;;;;;14.55;13.10;;;22.60;99.90;;;;;;4987289;28;20050;-65
2023/08/19 00:25:29;;;;;;;15.70;14.10;;;22.60;99.90;;;;;;4986515;28;20050;-65
2023/08/19 00:27:55;;;;;;;16.85;13.52;;;22.60;99.90;;;;;;4987348;28;20436;-65
2023/08/19 00:30:21;;;;;;;16.52;14.90;;;22.60;99.90;;;;;;4986230;28;20102;-65
2023/08/19 00:32:47;;;;;;;18.55;14.50;;;22.60;99.90;;;;;;4984033;28;20439;-64
2023/08/19 00:35:14;;;;;;;14.93;13.20;;;22.60;99.90;;;;;;4992056;28;20042;-66
2023/08/19 00:37:39;;;;;;;15.43;13.10;;;22.60;99.90;;;;;;4994743;28;20515;-64
2023/08/19 00:40:06;;;;;;;15.13;13.55;;;22.50;99.90;;;;;;4988808;28;20035;-65
2023/08/19 00:42:32;;;;;;;17.60;15.57;;;22.50;99.90;;;;;;4983705;28;20057;-64
2023/08/19 00:44:58;;;;;;;15.43;13.73;;;22.50;99.90;;;;;;4987199;28;20042;-64
2023/08/19 00:47:25;;;;;;;14.00;12.60;;;22.50;99.90;;;;;;4987380;28;20494;-65
2023/08/19 00:49:51;;;;;;;13.88;12.35;;;22.50;99.90;;;;;;4986732;28;20053;-65
2023/08/19 00:52:18;;;;;;;18.27;13.82;;;22.50;99.90;;;;;;4986586;28;20496;-65
2023/08/19 00:54:45;;;;;;;15.35;13.73;;;22.50;99.90;;;;;;4985317;28;20050;-64
2023/08/19 00:57:12;;;;;;;16.45;14.75;;;22.50;99.90;;;;;;4988038;28;20517;-64
2023/08/19 00:59:44;;;;;;;16.27;14.50;;;22.50;99.90;;;;;;4988801;28;20034;-65
2023/08/19 01:02:10;;;;;;;14.02;12.63;;;22.50;99.90;;;;;;4990484;28;20145;-64
2023/08/19 01:04:35;;;;;;;15.20;12.75;;;22.40;99.90;;;;;;5001108;28;20038;-63
2023/08/19 01:08:00;;;;;;;17.60;13.77;;;22.50;99.90;;;;;;4976502;28;20045;-65
2023/08/19 01:10:44;;;;;;;15.88;14.05;;;22.40;99.90;;;;;;4958472;28;20046;-65
2023/08/19 01:13:15;;;;;;;14.57;12.88;;;22.40;99.90;;;;;;4990102;28;20485;-65
2023/08/19 01:15:57;;;;;;;16.75;14.43;;;22.40;99.90;;;;;;4989872;28;20045;-64
2023/08/19 01:18:23;;;;;;;14.98;13.32;;;22.40;99.90;;;;;;4990504;28;20100;-65
2023/08/19 01:20:52;;;;;;;15.98;14.27;;;22.40;99.90;;;;;;4971713;28;20462;-64
2023/08/19 01:23:28;;;;;;;15.73;13.55;;;22.40;99.90;;;;;;4973051;28;20157;-65
2023/08/19 01:25:54;;;;;;;16.15;14.35;;;22.40;99.90;;;;;;4989315;28;20042;-65
2023/08/19 01:28:20;;;;;;;15.07;13.10;;;22.40;99.90;;;;;;4990002;28;20097;-64
2023/08/19 01:30:46;;;;;;;17.30;14.13;;;22.30;99.90;;;;;;4988704;28;20093;-64
2023/08/19 01:33:13;;;;;;;16.50;14.68;;;22.30;99.90;;;;;;4985376;28;20044;-65
2023/08/19 01:35:46;;;;;;;15.10;13.68;;;22.30;99.90;;;;;;4990071;28;20088;-64
2023/08/19 01:38:39;;;;;;;17.52;13.30;;;22.30;99.90;;;;;;4990138;28;20042;-64
2023/08/19 01:41:07;;;;;;;15.70;13.55;;;22.30;99.90;;;;;;4998601;28;20045;-65
2023/08/19 01:43:34;;;;;;;17.88;16.08;;;22.20;99.90;;;;;;4989878;28;20040;-65
2023/08/19 01:46:00;;;;;;;15.60;14.00;;;22.30;99.90;;;;;;4972112;28;20049;-65
2023/08/19 01:48:26;;;;;;;16.00;14.30;;;22.30;99.90;;;;;;4973561;28;20038;-65
2023/08/19 01:50:52;;;;;;;16.55;14.80;;;22.20;99.90;;;;;;4975232;28;20184;-65
2023/08/19 01:53:17;;;;;;;17.70;15.77;;;22.20;99.90;;;;;;4989853;28;20061;-65
2023/08/19 01:55:43;;;;;;;18.20;16.30;;;22.20;99.90;;;;;;4971491;28;20049;-65
2023/08/19 01:58:09;;;;;;;17.10;14.20;;;22.20;99.90;;;;;;4989267;28;20030;-64
2023/08/19 02:00:34;;;;;;;18.67;16.00;;;22.20;99.90;;;;;;4972038;28;20473;-64
2023/08/19 02:03:00;;;;;;;15.52;14.02;;;22.20;99.90;;;;;;4986828;28;20057;-65
2023/08/19 02:05:26;;;;;;;17.23;15.38;;;22.20;99.90;;;;;;4986219;28;20092;-65
2023/08/19 02:07:52;;;;;;;17.40;13.07;;;22.20;99.90;;;;;;4973172;28;20058;-65
2023/08/19 02:10:17;;;;;;;17.15;14.50;;;22.20;99.90;;;;;;4963071;28;20034;-65
2023/08/19 02:12:43;;;;;;;16.60;14.95;;;22.20;99.90;;;;;;4988933;28;20050;-65
2023/08/19 02:15:09;;;;;;;15.48;13.90;;;22.10;99.90;;;;;;4971413;28;20482;-64
2023/08/19 02:17:43;;;;;;;15.38;13.80;;;22.10;99.90;;;;;;4988996;28;20092;-65
2023/08/19 02:20:10;;;;;;;15.13;13.52;;;22.10;99.90;;;;;;4988455;28;20137;-64
2023/08/19 02:22:38;;;;;;;17.35;15.52;;;22.10;99.90;;;;;;4988192;28;20062;-65
2023/08/19 02:25:04;;;;;;;16.35;14.63;;;22.10;99.90;;;;;;4989137;28;20077;-65
2023/08/19 02:27:38;;;;;;;15.55;13.32;;;22.10;99.90;;;;;;4988268;28;20069;-65
2023/08/19 02:30:05;;;;;;;14.73;13.20;;;22.10;99.90;;;;;;4988608;28;20077;-65
2023/08/19 02:32:30;;;;;;;17.83;13.35;;;22.10;99.90;;;;;;4985152;28;20089;-65
2023/08/19 02:34:56;;;;;;;15.40;13.80;;;22.10;99.90;;;;;;4973097;28;20161;-65
2023/08/19 02:37:22;;;;;;;17.23;14.45;;;22.10;99.90;;;;;;4988598;28;20042;-65
2023/08/19 02:39:48;;;;;;;15.15;13.23;;;22.10;99.90;;;;;;4989093;28;20042;-65
2023/08/19 02:42:16;;;;;;;16.33;13.38;;;22.10;99.90;;;;;;4971049;28;20038;-65
2023/08/19 02:44:43;;;;;;;16.83;14.10;;;22.00;99.90;;;;;;4995333;28;20058;-65
2023/08/19 02:47:09;;;;;;;16.45;13.77;;;22.00;99.90;;;;;;4995021;28;20400;-65
2023/08/19 02:49:36;;;;;;;16.48;14.15;;;22.00;99.90;;;;;;4992597;28;20419;-66
2023/08/19 02:52:03;;;;;;;17.55;13.50;;;22.00;99.90;;;;;;4991500;28;20038;-65
2023/08/19 02:54:29;;;;;;;17.48;14.77;;;22.00;99.90;;;;;;4988737;28;20042;-64
2023/08/19 02:56:54;;;;;;;16.10;14.40;;;22.00;99.90;;;;;;4987715;28;20042;-65
2023/08/19 02:59:20;;;;;;;15.55;14.02;;;22.00;99.90;;;;;;4987652;28;20073;-65
2023/08/19 03:01:46;;;;;;;14.27;12.88;;;22.00;99.90;;;;;;4987658;28;20133;-65
2023/08/19 03:04:12;;;;;;;16.20;13.75;;;22.00;99.90;;;;;;4988243;28;20042;-65
2023/08/19 03:06:38;;;;;;;16.30;14.55;;;22.00;99.90;;;;;;4969448;28;20038;-65
2023/08/19 03:09:04;;;;;;;16.27;14.50;;;22.00;99.90;;;;;;4988785;28;20104;-65
2023/08/19 03:11:30;;;;;;;14.55;13.05;;;21.90;99.90;;;;;;4987651;28;20050;-66
2023/08/19 03:13:56;;;;;;;17.55;14.63;;;21.90;99.90;;;;;;4987744;28;20053;-65
2023/08/19 03:16:22;;;;;;;15.63;13.95;;;21.90;99.90;;;;;;4987798;28;20057;-65
2023/08/19 03:18:48;;;;;;;16.02;12.52;;;21.90;99.90;;;;;;4987826;28;20057;-66
2023/08/19 03:21:13;;;;;;;16.50;13.35;;;21.90;99.90;;;;;;4987071;28;20109;-65
2023/08/19 03:23:39;;;;;;;14.25;12.60;;;21.90;99.90;;;;;;4988309;28;20098;-65
2023/08/19 03:26:05;;;;;;;16.33;14.50;;;21.90;99.90;;;;;;4987654;28;20124;-65
2023/08/19 03:28:31;;;;;;;15.07;12.85;;;21.90;99.90;;;;;;4988050;28;20429;-65
2023/08/19 03:30:56;;;;;;;14.70;12.70;;;21.90;99.90;;;;;;4987600;28;20041;-65
2023/08/19 03:33:22;;;;;;;14.85;13.27;;;21.90;99.90;;;;;;4969076;28;20038;-65
2023/08/19 03:35:48;;;;;;;15.48;13.30;;;21.90;99.90;;;;;;4998425;28;20045;-65
2023/08/19 03:38:14;;;;;;;16.40;13.05;;;21.90;99.90;;;;;;4987070;28;20034;-65
2023/08/19 03:40:40;;;;;;;15.40;13.60;;;21.90;99.90;;;;;;4993826;28;20409;-65
2023/08/19 03:43:09;;;;;;;14.50;12.07;;;21.90;99.90;;;;;;4987064;28;20050;-65
2023/08/19 03:45:35;;;;;;;14.80;13.10;;;21.90;99.90;;;;;;4986899;28;20049;-65
2023/08/19 03:48:01;;;;;;;15.40;13.77;;;21.80;99.90;;;;;;4987402;28;20125;-65
2023/08/19 03:50:27;;;;;;;15.60;13.98;;;21.90;99.90;;;;;;4987658;28;20046;-65
2023/08/19 03:52:53;;;;;;;23.45;13.77;;;21.90;99.90;;;;;;4986939;28;20046;-65
2023/08/19 03:55:18;;;;;;;13.15;11.75;;;21.90;99.90;;;;;;4987712;28;20088;-66
2023/08/19 03:57:44;;;;;;;13.65;12.20;;;21.80;99.90;;;;;;4986706;28;20030;-65
2023/08/19 04:00:11;;;;;;;17.33;14.25;;;21.80;99.90;;;;;;4994111;28;20074;-65
2023/08/19 04:02:36;;;;;;;14.27;12.35;;;21.80;99.90;;;;;;4991780;28;20035;-65
2023/08/19 04:05:04;;;;;;;14.18;12.60;;;21.80;99.90;;;;;;4969933;28;20073;-64
2023/08/19 04:07:30;;;;;;;14.80;13.02;;;21.80;99.90;;;;;;4987101;28;20394;-65
2023/08/19 04:09:57;;;;;;;15.02;12.75;;;21.80;99.90;;;;;;4987406;28;20046;-65
2023/08/19 04:12:24;;;;;;;15.57;14.00;;;21.80;99.90;;;;;;4969022;28;20065;-65
2023/08/19 04:14:51;;;;;;;14.20;12.68;;;21.80;99.90;;;;;;4972604;28;20039;-65
2023/08/19 04:17:17;;;;;;;14.63;12.43;;;21.80;99.90;;;;;;4986902;28;20042;-64
2023/08/19 04:19:44;;;;;;;15.43;12.60;;;21.80;99.90;;;;;;4987068;28;20048;-65
2023/08/19 04:22:16;;;;;;;14.10;12.70;;;21.80;99.90;;;;;;4987079;28;20536;-65
2023/08/19 04:24:42;;;;;;;16.30;14.38;;;21.80;99.90;;;;;;4987678;28;20049;-65
2023/08/19 04:27:08;;;;;;;12.52;11.23;;;21.80;99.90;;;;;;4986803;28;20125;-65
2023/08/19 04:29:34;;;;;;;12.65;11.27;;;21.80;99.90;;;;;;4991664;28;20196;-65
2023/08/19 04:32:03;;;;;;;14.02;11.93;;;21.80;99.90;;;;;;4986122;28;20532;-65
2023/08/19 04:34:30;;;;;;;15.30;11.85;;;21.80;99.90;;;;;;4991515;28;20231;-65
2023/08/19 04:36:56;;;;;;;14.05;11.13;;;21.80;99.90;;;;;;4973454;28;20220;-65
2023/08/19 04:39:22;;;;;;;16.17;12.02;;;21.80;99.90;;;;;;4996467;28;20756;-65
2023/08/19 04:41:49;;;;;;;13.70;12.30;;;21.80;99.90;;;;;;4984539;28;20087;-65
2023/08/19 04:44:16;;;;;;;14.35;12.85;;;21.80;99.90;;;;;;4990073;28;20531;-65
2023/08/19 04:46:41;;;;;;;13.60;12.10;;;21.80;99.90;;;;;;4994742;28;20042;-65
2023/08/19 04:49:07;;;;;;;14.75;11.13;;;21.80;99.90;;;;;;4999237;28;20046;-65
2023/08/19 04:51:34;;;;;;;11.85;10.52;;;21.80;99.90;;;;;;4993458;28;20137;-65
2023/08/19 04:54:00;;;;;;;13.25;11.85;;;21.80;99.90;;;;;;4995866;28;20042;-65
2023/08/19 04:56:26;;;;;;;14.55;11.50;;;21.80;99.90;;;;;;4971753;28;20089;-66
2023/08/19 04:58:52;;;;;;;12.30;10.63;;;21.80;99.90;;;;;;4979564;28;20045;-65
2023/08/19 05:01:18;;;;;;;13.00;11.02;;;21.80;99.90;;;;;;4995335;28;20104;-65
2023/08/19 05:03:43;;;;;;;13.07;11.70;;;21.80;99.90;;;;;;5002829;28;20034;-65
2023/08/19 05:06:09;;;;;;;14.98;10.68;;;21.70;99.90;;;;;;4977697;28;20060;-64
2023/08/19 05:08:35;;;;;;;12.43;11.13;;;21.80;99.90;;;;;;5001661;28;20042;-64
2023/08/19 05:11:01;;;;;;;13.02;11.52;;;21.80;99.90;;;;;;4992657;28;20598;-64
2023/08/19 05:13:27;;;;;;;14.43;12.63;;;21.80;99.90;;;;;;4978555;28;20044;-65
2023/08/19 05:15:53;;;;;;;12.73;10.60;;;21.70;99.90;;;;;;4997716;28;20051;-65
2023/08/19 05:18:19;;;;;;;12.23;10.63;;;21.80;99.90;;;;;;5000192;28;20059;-65
2023/08/19 05:20:45;;;;;;;12.90;10.82;;;21.80;99.90;;;;;;4997420;28;20073;-65
2023/08/19 05:23:12;;;;;;;11.30;10.02;;;21.80;99.90;;;;;;4999667;28;20031;-64
2023/08/19 05:25:37;;;;;;;12.55;11.10;;;21.80;99.90;;;;;;4964740;28;20046;-64
2023/08/19 05:28:04;;;;;;;13.85;10.82;;;21.80;99.90;;;;;;4978887;28;20197;-64
2023/08/19 05:30:29;;;;;;;13.27;11.73;;;21.80;99.90;;;;;;4996814;28;20118;-64
2023/08/19 05:32:59;;;;;;;11.10;9.93;;;21.80;99.90;;;;;;4989513;28;20050;-64
2023/08/19 05:35:30;;;;;;;12.48;11.15;;;21.80;99.90;;;;;;4989339;28;20175;-64
2023/08/19 05:37:56;;;;;;;11.73;9.73;;;21.80;99.90;;;;;;4990145;28;20391;-65
2023/08/19 05:40:23;;;;;;;11.60;10.25;;;21.80;99.90;;;;;;4989129;28;20470;-64
2023/08/19 05:42:49;;;;;;;14.65;10.82;;;21.80;99.90;;;;;;4990002;28;20054;-64
2023/08/19 05:45:15;;;;;;;11.70;9.25;;;21.80;99.90;;;;;;4978305;28;20057;-65
2023/08/19 05:47:41;;;;;;;14.52;11.65;;;21.80;99.90;;;;;;4990066;28;20536;-64
2023/08/19 05:50:07;;;;;;;11.73;10.48;;;21.80;99.90;;;;;;4990062;28;20046;-66
2023/08/19 05:52:33;;;;;;;12.35;11.00;;;21.90;99.90;;;;;;4989358;28;20034;-64
2023/08/19 05:54:59;;;;;;;10.70;9.60;;;21.90;99.90;;;;;;4989526;28;20517;-64
2023/08/19 05:57:25;;;;;;;12.15;9.90;;;21.90;99.90;;;;;;4988514;28;20034;-65
2023/08/19 05:59:50;;;;;;;12.13;9.25;;;21.90;99.90;;;;;;4989622;28;20112;-66
2023/08/19 06:02:16;;;;;;;11.57;9.52;;;21.90;99.90;;;;;;4991691;28;20038;-65
2023/08/19 06:04:43;;;;;;;10.57;8.95;;;21.90;99.90;;;;;;4997951;28;20156;-65
2023/08/19 06:07:09;;;;;;;11.52;10.32;;;21.90;99.90;;;;;;4995930;28;20151;-65
2023/08/19 06:09:35;;;;;;;10.93;9.57;;;21.90;99.90;;;;;;4984081;28;20086;-64
2023/08/19 06:12:02;;;;;;;10.98;9.75;;;21.90;99.90;;;;;;4979562;28;20165;-65
2023/08/19 06:14:28;;;;;;;12.13;10.13;;;21.90;99.90;;;;;;4995323;28;20668;-66
2023/08/19 06:16:54;;;;;;;12.40;9.25;;;21.90;99.90;;;;;;4995401;28;20130;-65
2023/08/19 06:19:20;;;;;;;14.05;8.90;;;21.90;99.90;;;;;;4997164;28;20048;-64
2023/08/19 06:21:46;;;;;;;11.23;10.13;;;21.90;99.90;;;;;;4993891;28;20117;-66
2023/08/19 06:24:12;;;;;;;11.70;9.18;;;21.90;99.90;;;;;;4993357;28;20582;-64
2023/08/19 06:26:38;;;;;;;12.80;9.32;;;21.90;99.90;;;;;;4995053;28;20044;-65
2023/08/19 06:29:04;;;;;;;12.32;9.95;;;21.90;99.90;;;;;;4963414;28;20046;-65
2023/08/19 06:31:30;;;;;;;10.35;9.25;;;22.00;99.90;;;;;;4968206;28;20050;-64
2023/08/19 06:34:02;;;;;;;11.45;9.80;;;21.90;99.90;;;;;;4988345;28;20113;-65
2023/08/19 06:36:30;;;;;;;17.08;9.27;;;21.90;99.90;;;;;;4988117;28;20130;-63
2023/08/19 06:39:07;;;;;;;12.23;9.63;;;22.00;99.90;;;;;;4987424;28;20034;-64
2023/08/19 06:41:41;;;;;;;12.80;10.13;;;22.00;99.90;;;;;;4987212;28;20041;-65
2023/08/19 06:44:08;;;;;;;10.30;9.30;;;22.00;99.90;;;;;;4988914;28;20039;-64
2023/08/19 06:46:35;;;;;;;11.48;9.30;;;22.00;99.90;;;;;;4988303;28;20110;-65
2023/08/19 06:49:01;;;;;;;12.35;9.02;;;22.00;99.90;;;;;;4970345;28;20051;-64
2023/08/19 06:51:29;;;;;;;11.75;9.88;;;22.00;99.90;;;;;;4989602;28;20355;-64
2023/08/19 06:53:55;;;;;;;12.48;9.93;;;22.00;99.90;;;;;;4990119;28;20502;-64
2023/08/19 06:56:36;;;;;;;10.60;9.25;;;22.00;99.90;;;;;;4985233;28;20044;-64
2023/08/19 06:59:16;;;;;;;10.63;9.32;;;22.00;99.90;;;;;;4986220;28;20870;-65
2023/08/19 07:01:49;;;;;;;11.05;9.07;;;22.10;99.90;;;;;;4970477;28;20140;-64
2023/08/19 07:04:20;;;;;;;12.30;9.90;;;22.10;99.90;;;;;;4988358;28;20512;-64
2023/08/19 07:06:47;;;;;;;10.23;9.07;;;22.10;99.90;;;;;;4988248;28;20038;-65
2023/08/19 07:09:14;;;;;;;12.90;9.57;;;22.10;99.90;;;;;;4987935;28;20513;-64
2023/08/19 07:11:40;;;;;;;11.80;9.05;;;22.10;99.90;;;;;;4972136;28;20137;-65
2023/08/19 07:14:06;;;;;;;11.18;8.85;;;22.10;99.90;;;;;;4982210;28;20046;-65
2023/08/19 07:16:33;;;;;;;10.10;8.98;;;22.20;99.90;;;;;;4963655;28;20043;-65
2023/08/19 07:19:03;;;;;;;10.55;8.90;;;22.20;99.90;;;;;;4988617;28;20042;-64
2023/08/19 07:21:31;;;;;;;10.32;8.27;;;22.20;99.90;;;;;;4987521;28;20498;-64
2023/08/19 07:24:00;;;;;;;11.90;8.65;;;22.20;99.90;;;;;;4987842;28;20045;-64
2023/08/19 07:26:32;;;;;;;11.20;8.88;;;22.20;99.90;;;;;;4972094;28;20594;-64
2023/08/19 07:28:59;;;;;;;11.20;8.88;;;22.20;99.90;;;;;;4986894;28;20095;-65
2023/08/19 07:31:26;;;;;;;12.85;8.13;;;22.20;99.90;;;;;;4983046;28;20053;-66
2023/08/19 07:33:53;;;;;;;9.75;7.60;;;22.30;99.90;;;;;;4987014;28;20042;-64
2023/08/19 07:36:18;;;;;;;10.07;8.00;;;22.30;99.90;;;;;;4970458;28;20045;-64
2023/08/19 07:38:46;;;;;;;10.70;8.50;;;22.30;99.90;;;;;;4992771;28;20039;-65
2023/08/19 07:41:13;;;;;;;11.05;8.15;;;22.30;99.90;;;;;;4972011;28;20049;-64
2023/08/19 07:43:39;;;;;;;12.15;8.27;;;22.30;99.90;;;;;;4970773;28;20057;-65
2023/08/19 07:46:05;;;;;;;10.45;7.68;;;22.30;99.90;;;;;;4968479;28;20054;-64
2023/08/19 07:48:37;;;;;;;10.57;7.47;;;22.30;99.90;;;;;;4971014;28;20045;-63
2023/08/19 07:51:04;;;;;;;11.43;7.90;;;22.40;99.90;;;;;;4986691;28;20046;-64
2023/08/19 07:53:29;;;;;;;13.27;7.85;;;22.40;99.90;;;;;;4971178;28;20118;-64
2023/08/19 07:55:55;;;;;;;10.93;7.10;;;22.40;99.90;;;;;;4984959;28;20180;-65
2023/08/19 07:58:21;;;;;;;9.20;6.65;;;22.40;99.90;;;;;;4984565;28;20050;-64
2023/08/19 08:00:47;;;;;;;10.10;7.97;;;22.40;99.90;;;;;;4985463;28;20056;-63
2023/08/19 08:03:13;;;;;;;13.27;8.48;;;22.40;99.90;;;;;;4988901;28;20161;-65
2023/08/19 08:05:39;;;;;;;8.27;7.20;;;22.40;99.90;;;;;;4977548;28;20517;-64
2023/08/19 08:08:05;;;;;;;8.35;7.45;;;22.50;99.90;;;;;;4988910;28;20406;-64
2023/08/19 08:10:31;;;;;;;8.20;7.22;;;22.50;99.90;;;;;;4991574;28;20042;-64
2023/08/19 08:12:56;;;;;;;11.63;7.25;;;22.50;99.90;;;;;;4973633;28;20042;-64
2023/08/19 08:15:23;;;;;;;10.23;8.13;;;22.50;99.90;;;;;;4990392;28;20045;-65
2023/08/19 08:17:49;;;;;;;8.10;6.88;;;22.60;99.90;;;;;;4990323;28;20521;-63
2023/08/19 08:20:15;;;;;;;7.60;6.80;;;22.60;99.90;;;;;;4991420;28;20066;-65
2023/08/19 08:22:40;;;;;;;8.52;7.35;;;22.60;99.90;;;;;;4990884;28;20046;-64
2023/08/19 08:25:09;;;;;;;12.02;7.72;;;22.70;99.90;;;;;;4977423;28;20387;-64
2023/08/19 08:27:35;;;;;;;10.75;7.88;;;22.70;99.90;;;;;;4991258;28;20092;-65
2023/08/19 08:30:01;;;;;;;8.32;7.22;;;22.80;99.90;;;;;;4972945;28;20511;-65
2023/08/19 08:32:27;;;;;;;10.75;7.65;;;22.80;99.90;;;;;;4972733;28;20042;-65
2023/08/19 08:34:53;;;;;;;11.00;7.43;;;22.90;99.90;;;;;;4992344;28;20042;-65
2023/08/19 08:37:27;;;;;;;8.88;7.93;;;22.90;99.90;;;;;;4995036;28;20040;-65
2023/08/19 08:39:53;;;;;;;12.85;8.13;;;22.90;99.90;;;;;;4990161;28;20053;-64
2023/08/19 08:42:22;;;;;;;11.85;8.35;;;23.00;99.90;;;;;;4991230;28;20039;-64
2023/08/19 08:44:50;;;;;;;9.95;6.85;;;23.00;99.90;;;;;;4989649;28;20072;-65
2023/08/19 08:47:18;;;;;;;11.45;8.27;;;23.10;99.90;;;;;;4990193;28;20169;-64
2023/08/19 08:49:46;;;;;;;12.25;8.10;;;23.10;99.90;;;;;;4989981;28;20034;-65
2023/08/19 08:52:12;;;;;;;9.23;8.07;;;23.10;99.90;;;;;;4990048;28;20050;-64
2023/08/19 08:54:39;;;;;;;11.48;7.68;;;23.10;99.90;;;;;;4989790;28;20489;-64
2023/08/19 08:57:05;;;;;;;9.85;7.28;;;23.20;99.90;;;;;;4973065;28;20046;-65
2023/08/19 08:59:31;;;;;;;9.73;7.38;;;23.20;99.90;;;;;;4972843;28;20039;-66
2023/08/19 09:01:58;;;;;;;10.85;9.25;;;23.30;99.90;;;;;;4989565;28;20046;-64
2023/08/19 09:04:28;;;;;;;10.02;7.35;;;23.30;99.90;;;;;;4990484;28;20061;-65
2023/08/19 09:07:03;;;;;;;10.80;7.10;;;23.30;99.90;;;;;;4990413;28;20054;-64
2023/08/19 09:09:33;;;;;;;9.48;7.35;;;23.30;99.90;;;;;;4972155;28;20203;-65
2023/08/19 09:12:03;;;;;;;9.07;7.25;;;23.40;99.90;;;;;;4990519;28;20128;-64
2023/08/19 09:14:45;;;;;;;10.15;6.65;;;23.40;99.90;;;;;;4985165;28;20097;-65
2023/08/19 09:17:12;;;;;;;9.00;6.50;;;23.40;99.90;;;;;;4989641;28;20038;-64
2023/08/19 09:19:38;;;;;;;7.93;6.15;;;23.40;99.90;;;;;;4987617;28;20042;-65
2023/08/19 09:22:16;;;;;;;8.68;7.63;;;23.40;99.90;;;;;;4989698;28;20045;-65
2023/08/19 09:24:42;;;;;;;9.00;7.32;;;23.50;99.90;;;;;;4990007;28;20590;-65
2023/08/19 09:27:08;;;;;;;13.63;8.75;;;23.50;99.90;;;;;;4991579;28;20039;-65
2023/08/19 09:29:34;;;;;;;11.45;7.90;;;23.50;99.90;;;;;;4976834;28;20037;-65
2023/08/19 09:32:00;;;;;;;10.85;7.32;;;23.60;99.90;;;;;;4986797;28;20042;-65
2023/08/19 09:34:26;;;;;;;12.02;7.30;;;23.60;99.90;;;;;;4990278;28;20182;-65
2023/08/19 09:36:56;;;;;;;7.78;6.97;;;23.60;99.90;;;;;;4989483;28;20469;-65
2023/08/19 09:39:25;;;;;;;11.48;7.63;;;23.70;99.90;;;;;;4989872;28;20038;-65
2023/08/19 09:42:00;;;;;;;10.48;7.93;;;23.70;99.90;;;;;;4989857;28;20068;-65
2023/08/19 09:44:30;;;;;;;8.95;8.10;;;23.70;99.90;;;;;;4971431;28;20038;-65
2023/08/19 09:47:00;;;;;;;8.77;7.57;;;23.80;99.90;;;;;;4969954;28;20042;-65
2023/08/19 09:49:26;;;;;;;10.10;7.80;;;23.80;99.90;;;;;;4989046;28;20117;-65
2023/08/19 09:51:55;;;;;;;16.92;8.43;;;23.80;99.90;;;;;;4987811;28;20518;-65
2023/08/19 09:54:21;;;;;;;9.45;7.03;;;23.80;99.90;;;;;;4993546;28;20039;-66
2023/08/19 09:56:57;;;;;;;8.85;7.32;;;23.90;99.90;;;;;;4987045;28;20060;-64
2023/08/19 09:59:26;;;;;;;10.27;8.70;;;23.90;99.90;;;;;;4988932;28;20085;-65
2023/08/19 10:01:56;;;;;;;12.52;8.40;;;24.00;99.90;;;;;;4988880;28;20129;-65
2023/08/19 10:04:22;;;;;;;11.57;8.25;;;24.00;99.90;;;;;;4988739;28;20410;-65
2023/08/19 10:06:51;;;;;;;11.32;8.38;;;24.00;99.90;;;;;;4973170;28;20089;-65
2023/08/19 10:09:26;;;;;;;12.48;9.07;;;24.10;99.90;;;;;;4985558;28;20030;-64
2023/08/19 10:11:56;;;;;;;11.68;8.32;;;24.20;99.90;;;;;;4986977;28;20113;-64
2023/08/19 10:14:31;;;;;;;9.95;8.50;;;24.30;99.90;;;;;;4988738;28;20035;-65
2023/08/19 10:17:04;;;;;;;11.68;8.82;;;24.30;99.90;;;;;;4988174;28;20049;-64
2023/08/19 10:19:37;;;;;;;10.02;8.57;;;24.40;99.90;;;;;;4989722;28;20034;-65
2023/08/19 10:22:04;;;;;;;11.50;8.90;;;24.50;99.90;;;;;;4987847;28;20038;-64
2023/08/19 10:24:30;;;;;;;20.60;9.73;;;24.50;99.90;;;;;;4989562;28;20050;-65
2023/08/19 10:26:56;;;;;;;10.48;9.15;;;24.50;99.90;;;;;;4988616;28;20053;-65
2023/08/19 10:29:23;;;;;;;15.30;10.27;;;24.60;99.90;;;;;;4987509;28;20429;-65
2023/08/19 10:31:48;;;;;;;14.02;9.68;;;24.70;99.90;;;;;;4989203;28;20057;-65
2023/08/19 10:34:26;;;;;;;9.75;8.40;;;24.70;99.90;;;;;;4988421;28;20486;-65
2023/08/19 10:37:09;;;;;;;13.40;11.10;;;24.70;99.90;;;;;;4989060;28;20427;-64
2023/08/19 10:39:35;;;;;;;11.40;9.77;;;24.70;99.90;;;;;;4989352;28;20038;-64
2023/08/19 10:42:01;;;;;;;11.40;9.68;;;24.80;99.90;;;;;;4994729;28;20518;-64
2023/08/19 10:44:33;;;;;;;11.30;9.30;;;24.80;99.90;;;;;;4993827;28;20057;-64
2023/08/19 10:47:15;;;;;;;15.88;10.63;;;24.80;99.90;;;;;;4995009;28;20034;-64
2023/08/19 10:49:41;;;;;;;11.15;10.00;;;24.90;99.90;;;;;;4993623;28;20046;-64
2023/08/19 10:52:07;;;;;;;12.10;9.90;;;24.90;99.90;;;;;;4988235;28;20051;-64
2023/08/19 10:54:43;;;;;;;13.88;11.43;;;25.00;99.90;;;;;;4988709;28;20088;-64
2023/08/19 10:57:23;;;;;;;19.33;11.75;;;25.00;99.90;;;;;;4987851;28;20038;-65
2023/08/19 10:59:56;;;;;;;13.88;12.38;;;25.10;99.90;;;;;;4992042;28;20068;-64
2023/08/19 11:02:22;;;;;;;15.43;10.90;;;25.20;99.90;;;;;;4992359;28;20425;-64
2023/08/19 11:04:50;;;;;;;14.68;12.38;;;25.20;99.90;;;;;;4992931;28;20042;-64
2023/08/19 11:07:16;;;;;;;11.95;10.70;;;25.30;99.90;;;;;;4988795;28;20113;-65
2023/08/19 11:09:45;;;;;;;15.82;10.77;;;25.30;99.90;;;;;;4987214;28;20046;-65
2023/08/19 11:12:14;;;;;;;13.40;12.02;;;25.30;99.90;;;;;;4987746;28;20132;-66
2023/08/19 11:14:48;;;;;;;17.30;12.98;;;25.30;99.90;;;;;;4995106;28;20050;-63
2023/08/19 11:17:15;;;;;;;19.27;14.98;;;25.30;99.90;;;;;;4987186;28;20069;-63
2023/08/19 11:19:40;;;;;;;17.83;14.80;;;25.30;99.90;;;;;;4988654;28;20045;-64
2023/08/19 11:22:10;;;;;;;21.80;18.83;;;25.30;99.90;;;;;;4988272;28;20046;-64
2023/08/19 11:24:40;;;;;;;20.85;16.85;;;25.30;99.90;;;;;;4992677;28;20053;-63
2023/08/19 11:27:07;;;;;;;25.00;20.73;;;25.30;99.90;;;;;;4993251;28;20423;-64
2023/08/19 11:29:38;;;;;;;22.42;20.05;;;25.30;99.90;;;;;;4982476;28;20042;-63
2023/08/19 11:32:04;;;;;;;26.73;20.65;;;25.30;99.90;;;;;;4983364;28;20046;-64
2023/08/19 11:34:36;;;;;;;25.25;21.95;;;25.20;99.90;;;;;;4986205;28;20100;-64
2023/08/19 11:37:05;;;;;;;26.13;21.27;;;25.20;99.90;;;;;;4974078;28;20452;-64
2023/08/19 11:39:32;;;;;;;27.55;22.10;;;25.20;99.90;;;;;;4971391;28;20390;-64
2023/08/19 11:41:59;;;;;;;28.95;22.98;;;25.20;99.90;;;;;;4994940;28;20100;-64
2023/08/19 11:44:25;;;;;;;27.20;23.23;;;25.20;99.90;;;;;;4987528;28;20113;-64
2023/08/19 11:46:58;;;;;;;25.75;21.35;;;25.20;99.90;;;;;;4979179;28;20132;-63
2023/08/19 11:49:28;;;;;;;22.65;18.38;;;25.30;99.90;;;;;;4987099;28;20088;-63
2023/08/19 11:51:54;;;;;;;25.17;19.73;;;25.30;99.90;;;;;;4987337;28;20077;-63
2023/08/19 11:54:22;;;;;;;26.02;19.20;;;25.30;99.90;;;;;;4987438;28;20065;-64
2023/08/19 11:56:50;;;;;;;20.77;17.15;;;25.30;99.90;;;;;;4984878;28;20052;-64
2023/08/19 11:59:17;;;;;;;19.33;17.08;;;25.30;99.90;;;;;;4983245;28;20631;-63
2023/08/19 12:01:46;;;;;;;19.42;15.68;;;25.30;99.90;;;;;;4979380;28;20065;-64
2023/08/19 12:04:16;;;;;;;17.27;13.63;;;25.30;99.90;;;;;;4987188;28;20038;-65
2023/08/19 12:06:47;;;;;;;16.35;11.65;;;25.30;99.90;;;;;;4992146;28;20041;-64
2023/08/19 12:09:13;;;;;;;11.93;10.68;;;25.30;99.90;;;;;;4987765;28;20127;-64
2023/08/19 12:11:40;;;;;;;13.18;11.07;;;25.30;99.90;;;;;;4986856;28;20517;-64
2023/08/19 12:14:07;;;;;;;12.73;10.05;;;25.20;99.90;;;;;;4987662;28;20042;-64
2023/08/19 12:16:33;;;;;;;11.75;10.52;;;25.30;99.90;;;;;;4993026;28;20038;-64
2023/08/19 12:18:58;;;;;;;14.02;10.27;;;25.30;99.90;;;;;;4987485;28;20039;-65
2023/08/19 12:21:25;;;;;;;13.45;10.00;;;25.30;99.90;;;;;;4987018;28;20046;-64
2023/08/19 12:23:52;;;;;;;11.52;9.02;;;25.30;99.90;;;;;;4988104;28;20097;-64
2023/08/19 12:26:18;;;;;;;13.13;9.88;;;25.20;99.90;;;;;;4987182;28;20042;-64
2023/08/19 12:28:44;;;;;;;15.70;9.85;;;25.30;99.90;;;;;;4970161;28;20061;-64
2023/08/19 12:31:10;;;;;;;13.20;8.70;;;25.20;99.90;;;;;;4985191;28;20508;-63
2023/08/19 12:33:36;;;;;;;12.18;8.77;;;25.20;99.90;;;;;;4971942;28;20049;-63